Time;durP1;ratioP1;P1;durP2;ratioP2;P2;SDS_P1;SDS_P2;PMS_P1;PMS_P2;Temp;Humidity;BMP_temperature;BMP_pressure;BME280_temperature;BME280_humidity;BME280_pressure;Samples;Min_cycle;Max_cycle;Signal;HPM_P1;HPM_P2
2023/05/11 00:01:22;;;;;;;1.95;1.10;;;11.00;99.90;;;;;;5049133;28;20106;-65
2023/05/11 00:03:49;;;;;;;3.20;1.30;;;11.00;99.90;;;;;;5048349;28;20055;-65
2023/05/11 00:06:16;;;;;;;5.25;1.45;;;11.00;99.90;;;;;;5049304;28;20094;-65
2023/05/11 00:08:42;;;;;;;7.70;3.42;;;11.00;99.90;;;;;;5048432;28;20563;-64
2023/05/11 00:11:09;;;;;;;7.03;1.58;;;11.00;99.90;;;;;;5048249;28;20051;-64
2023/05/11 00:13:36;;;;;;;4.60;1.25;;;11.00;99.90;;;;;;5045449;28;20048;-65
2023/05/11 00:16:03;;;;;;;4.47;1.27;;;11.00;99.90;;;;;;5048387;28;20084;-64
2023/05/11 00:18:30;;;;;;;4.18;1.55;;;10.90;99.90;;;;;;5045531;28;20102;-64
2023/05/11 00:20:57;;;;;;;6.00;1.50;;;10.90;99.90;;;;;;5040536;28;20472;-64
2023/05/11 00:23:24;;;;;;;7.57;1.65;;;10.90;99.90;;;;;;5049032;28;20049;-65
2023/05/11 00:25:51;;;;;;;2.83;1.17;;;10.80;99.90;;;;;;5049686;28;20059;-65
2023/05/11 00:28:18;;;;;;;3.83;1.40;;;10.80;99.90;;;;;;5049850;28;20084;-65
2023/05/11 00:30:44;;;;;;;2.70;1.27;;;10.90;99.90;;;;;;5050025;28;20132;-65
2023/05/11 00:33:11;;;;;;;6.80;1.40;;;10.80;99.90;;;;;;5050696;28;20676;-65
2023/05/11 00:35:38;;;;;;;5.30;3.05;;;10.80;99.90;;;;;;5050873;28;20148;-65
2023/05/11 00:38:05;;;;;;;2.40;1.48;;;10.80;99.90;;;;;;5051074;28;20579;-64
2023/05/11 00:40:32;;;;;;;5.10;1.40;;;10.70;99.90;;;;;;5051023;28;20139;-65
2023/05/11 00:42:58;;;;;;;6.80;1.25;;;10.70;99.90;;;;;;5050774;28;20055;-64
2023/05/11 00:45:25;;;;;;;2.25;1.20;;;10.60;99.90;;;;;;5049672;28;20045;-65
2023/05/11 00:47:52;;;;;;;6.20;1.58;;;10.60;99.90;;;;;;5048780;28;20151;-65
2023/05/11 00:50:19;;;;;;;10.27;1.70;;;10.60;99.90;;;;;;5049388;28;20060;-65
2023/05/11 00:52:46;;;;;;;4.40;1.20;;;10.60;99.90;;;;;;5047513;28;20071;-65
2023/05/11 00:55:13;;;;;;;6.70;1.60;;;10.50;99.90;;;;;;5049620;28;20063;-65
2023/05/11 00:57:39;;;;;;;7.28;1.40;;;10.50;99.90;;;;;;5048888;28;20407;-65
2023/05/11 01:00:07;;;;;;;4.45;1.10;;;10.50;99.90;;;;;;5049291;28;20441;-66
2023/05/11 01:02:33;;;;;;;6.15;1.67;;;10.50;99.90;;;;;;5049312;28;20063;-65
2023/05/11 01:05:00;;;;;;;7.22;1.45;;;10.50;99.90;;;;;;5047709;28;20450;-65
2023/05/11 01:07:48;;;;;;;3.65;1.40;;;10.60;99.90;;;;;;5048961;28;20126;-66
2023/05/11 01:10:33;;;;;;;3.30;1.20;;;10.50;99.90;;;;;;5048685;28;20076;-66
2023/05/11 01:13:12;;;;;;;7.18;1.10;;;10.60;99.90;;;;;;5048911;28;20131;-65
2023/05/11 01:15:47;;;;;;;9.55;1.35;;;10.60;99.90;;;;;;5045254;28;20064;-65
2023/05/11 01:18:25;;;;;;;8.55;1.63;;;10.50;99.90;;;;;;5030937;28;20047;-66
2023/05/11 01:20:55;;;;;;;3.97;1.27;;;10.50;99.90;;;;;;5048985;28;20131;-66
2023/05/11 01:23:34;;;;;;;6.78;1.10;;;10.50;99.90;;;;;;5031091;28;20060;-65
2023/05/11 01:26:16;;;;;;;6.82;1.15;;;10.50;99.90;;;;;;5045322;28;20044;-64
2023/05/11 01:29:07;;;;;;;11.73;1.45;;;10.50;99.90;;;;;;5031055;28;20041;-65
2023/05/11 01:31:34;;;;;;;8.27;1.60;;;10.50;99.90;;;;;;5046797;28;20080;-65
2023/05/11 01:34:03;;;;;;;9.88;3.08;;;10.50;99.90;;;;;;5030850;28;20106;-64
2023/05/11 01:36:35;;;;;;;7.70;1.30;;;10.50;99.90;;;;;;4691044;28;10000618;-65
2023/05/11 01:39:04;;;;;;;7.82;1.27;;;10.50;99.90;;;;;;5045989;28;20084;-64
2023/05/11 01:41:31;;;;;;;5.68;1.08;;;10.50;99.90;;;;;;5045101;28;20049;-64
2023/05/11 01:43:59;;;;;;;7.70;1.38;;;10.50;99.90;;;;;;5047393;28;20063;-64
2023/05/11 01:46:27;;;;;;;6.57;2.28;;;10.50;99.90;;;;;;5030546;28;20036;-65
2023/05/11 01:48:55;;;;;;;8.25;1.75;;;10.60;99.90;;;;;;5030388;28;20507;-65
2023/05/11 01:51:25;;;;;;;3.05;1.02;;;10.60;99.90;;;;;;5047012;28;20122;-65
2023/05/11 01:53:52;;;;;;;8.63;2.00;;;10.60;99.90;;;;;;5030855;28;20402;-65
2023/05/11 01:56:20;;;;;;;6.68;1.67;;;10.70;99.90;;;;;;5030803;28;20053;-65
2023/05/11 01:58:47;;;;;;;4.25;1.33;;;10.70;99.90;;;;;;5030939;28;20048;-65
2023/05/11 02:01:13;;;;;;;4.18;0.90;;;10.80;99.90;;;;;;5046950;28;20550;-65
2023/05/11 02:03:40;;;;;;;7.55;1.48;;;10.80;99.90;;;;;;5046776;28;20052;-65
2023/05/11 02:06:08;;;;;;;8.57;1.50;;;10.90;99.90;;;;;;5030518;28;20045;-64
2023/05/11 02:08:34;;;;;;;5.28;1.42;;;10.90;99.90;;;;;;5030521;28;20496;-64
2023/05/11 02:11:01;;;;;;;6.47;1.33;;;10.90;99.90;;;;;;5048078;28;20124;-66
2023/05/11 02:13:28;;;;;;;10.30;1.88;;;10.90;99.90;;;;;;5030726;28;20053;-66
2023/05/11 02:15:55;;;;;;;10.10;1.83;;;10.90;99.90;;;;;;5046990;28;20147;-65
2023/05/11 02:18:23;;;;;;;18.70;4.00;;;10.90;99.90;;;;;;5046798;28;20114;-66
2023/05/11 02:20:50;;;;;;;9.60;2.60;;;10.90;99.90;;;;;;5049514;28;20381;-66
2023/05/11 02:23:17;;;;;;;7.35;1.10;;;10.90;99.90;;;;;;5034337;28;20056;-65
2023/05/11 02:25:44;;;;;;;12.63;2.05;;;10.90;99.90;;;;;;5034149;28;20045;-66
2023/05/11 02:28:10;;;;;;;5.70;1.20;;;10.90;99.90;;;;;;5051167;28;20120;-65
2023/05/11 02:30:46;;;;;;;9.80;1.77;;;10.90;99.90;;;;;;5034266;28;20053;-66
2023/05/11 02:33:32;;;;;;;10.43;1.73;;;10.90;99.90;;;;;;5040927;28;20045;-66
2023/05/11 02:35:58;;;;;;;11.48;2.00;;;10.90;99.90;;;;;;5051454;28;20515;-65
2023/05/11 02:38:32;;;;;;;10.20;1.60;;;10.90;99.90;;;;;;5031024;28;20051;-65
2023/05/11 02:41:04;;;;;;;7.15;1.63;;;10.90;99.90;;;;;;5034143;28;20198;-64
2023/05/11 02:43:34;;;;;;;12.38;1.83;;;10.90;99.90;;;;;;5050848;28;20083;-65
2023/05/11 02:46:05;;;;;;;7.60;1.92;;;11.00;99.90;;;;;;5018009;28;20559;-65
2023/05/11 02:48:37;;;;;;;11.77;2.28;;;10.90;99.90;;;;;;5050511;28;20068;-65
2023/05/11 02:51:06;;;;;;;13.05;2.03;;;10.90;99.90;;;;;;5034006;28;20055;-66
2023/05/11 02:53:32;;;;;;;10.88;1.60;;;10.90;99.90;;;;;;5051434;28;20067;-65
2023/05/11 02:55:59;;;;;;;11.00;1.95;;;10.90;99.90;;;;;;5034273;28;20048;-66
2023/05/11 02:58:26;;;;;;;6.93;1.95;;;10.90;99.90;;;;;;5033841;28;20053;-65
2023/05/11 03:00:53;;;;;;;11.88;1.73;;;10.90;99.90;;;;;;5050341;28;20053;-64
2023/05/11 03:03:20;;;;;;;9.18;1.73;;;10.90;99.90;;;;;;5051471;28;20452;-65
2023/05/11 03:05:46;;;;;;;9.85;1.92;;;10.90;99.90;;;;;;5051716;28;20036;-64
2023/05/11 03:08:13;;;;;;;9.57;2.22;;;10.90;99.90;;;;;;5051556;28;20045;-65
2023/05/11 03:10:40;;;;;;;8.57;1.95;;;10.90;99.90;;;;;;5037275;28;20045;-65
2023/05/11 03:13:07;;;;;;;11.68;2.72;;;11.00;99.90;;;;;;5054872;28;20063;-65
2023/05/11 03:15:33;;;;;;;16.00;2.25;;;11.00;99.90;;;;;;5021821;28;20141;-65
2023/05/11 03:18:00;;;;;;;9.93;2.50;;;11.00;99.90;;;;;;5017005;28;20048;-65
2023/05/11 03:20:27;;;;;;;8.30;2.17;;;11.10;99.90;;;;;;5052392;28;20045;-65
2023/05/11 03:22:54;;;;;;;15.05;2.55;;;11.10;99.90;;;;;;5050005;28;20044;-65
2023/05/11 03:25:21;;;;;;;13.63;2.10;;;11.10;99.90;;;;;;5049959;28;20044;-65
2023/05/11 03:27:47;;;;;;;11.88;1.92;;;11.00;99.90;;;;;;5049741;28;20048;-65
2023/05/11 03:30:14;;;;;;;10.88;2.42;;;11.10;99.90;;;;;;5050051;28;20048;-66
2023/05/11 03:32:41;;;;;;;9.73;2.88;;;11.10;99.90;;;;;;5016640;28;20049;-66
2023/05/11 03:35:08;;;;;;;11.05;2.90;;;11.10;99.90;;;;;;5049528;28;20057;-65
2023/05/11 03:37:36;;;;;;;14.52;4.10;;;11.00;99.90;;;;;;5050532;28;20045;-67
2023/05/11 03:40:04;;;;;;;9.45;2.15;;;11.00;99.90;;;;;;5049607;28;20056;-65
2023/05/11 03:42:30;;;;;;;7.18;2.00;;;11.00;99.90;;;;;;5032982;28;20285;-65
2023/05/11 03:44:58;;;;;;;14.13;2.83;;;11.00;99.90;;;;;;5033038;28;20136;-65
2023/05/11 03:47:26;;;;;;;9.45;2.70;;;11.00;99.90;;;;;;5049245;28;20371;-65
2023/05/11 03:49:54;;;;;;;18.95;2.75;;;11.00;99.90;;;;;;5050360;28;20595;-65
2023/05/11 03:52:21;;;;;;;11.40;3.90;;;11.00;99.90;;;;;;5032196;28;20072;-65
2023/05/11 03:54:48;;;;;;;13.35;2.97;;;11.00;99.90;;;;;;5042376;28;20045;-65
2023/05/11 03:57:14;;;;;;;13.52;2.13;;;11.00;99.90;;;;;;5049180;28;20053;-64
2023/05/11 03:59:41;;;;;;;12.07;2.72;;;11.00;99.90;;;;;;5050215;28;20041;-65
2023/05/11 04:02:08;;;;;;;13.60;2.55;;;11.00;99.90;;;;;;5050267;28;20139;-65
2023/05/11 04:04:34;;;;;;;16.65;2.65;;;11.00;99.90;;;;;;5046828;28;20056;-65
2023/05/11 04:07:01;;;;;;;13.13;2.20;;;11.00;99.90;;;;;;5027056;28;20152;-65
2023/05/11 04:09:28;;;;;;;18.00;2.58;;;11.10;99.90;;;;;;5050233;28;20127;-65
2023/05/11 04:11:55;;;;;;;16.67;2.70;;;11.10;99.90;;;;;;5050225;28;20044;-65
2023/05/11 04:14:21;;;;;;;9.70;2.10;;;11.10;99.90;;;;;;5049871;28;20128;-65
2023/05/11 04:16:48;;;;;;;14.73;2.95;;;11.10;99.90;;;;;;5050205;28;20107;-65
2023/05/11 04:19:15;;;;;;;13.70;2.70;;;11.10;99.90;;;;;;5049914;28;20049;-66
2023/05/11 04:21:42;;;;;;;12.05;2.72;;;11.10;99.90;;;;;;5048903;28;20041;-65
2023/05/11 04:24:09;;;;;;;13.07;2.85;;;11.10;99.90;;;;;;5047964;28;20045;-66
2023/05/11 04:26:36;;;;;;;12.32;2.45;;;11.00;99.90;;;;;;5048188;28;20091;-66
2023/05/11 04:29:03;;;;;;;11.15;2.33;;;11.10;99.90;;;;;;5049883;28;20045;-66
2023/05/11 04:31:30;;;;;;;24.63;4.25;;;11.10;99.90;;;;;;5049567;28;20057;-65
2023/05/11 04:33:57;;;;;;;14.90;3.38;;;11.10;99.90;;;;;;5031926;28;20121;-64
2023/05/11 04:36:24;;;;;;;15.57;3.35;;;11.10;99.90;;;;;;5049401;28;20500;-66
2023/05/11 04:38:52;;;;;;;15.18;2.70;;;11.10;99.90;;;;;;5049521;28;20132;-66
2023/05/11 04:41:18;;;;;;;14.13;3.13;;;11.10;99.90;;;;;;5049429;28;20052;-64
2023/05/11 04:43:45;;;;;;;15.95;3.42;;;11.20;99.90;;;;;;5048682;28;20048;-64
2023/05/11 04:46:12;;;;;;;23.13;6.38;;;11.20;99.90;;;;;;5049240;28;20052;-65
2023/05/11 04:48:39;;;;;;;16.85;3.58;;;11.10;99.90;;;;;;5049372;28;20049;-65
2023/05/11 04:51:06;;;;;;;17.40;3.38;;;11.10;99.90;;;;;;5049287;28;20444;-64
2023/05/11 04:53:32;;;;;;;13.40;3.47;;;11.10;99.90;;;;;;5048849;28;20059;-64
2023/05/11 04:55:59;;;;;;;10.30;2.38;;;11.10;99.90;;;;;;5047260;28;20045;-65
2023/05/11 04:58:26;;;;;;;12.90;2.53;;;11.20;99.90;;;;;;5049246;28;20131;-66
2023/05/11 05:00:53;;;;;;;18.42;3.58;;;11.20;99.90;;;;;;5048777;28;20443;-65
2023/05/11 05:03:19;;;;;;;10.18;2.92;;;11.20;99.90;;;;;;5049145;28;20049;-65
2023/05/11 05:05:46;;;;;;;17.27;3.25;;;11.10;99.90;;;;;;5048924;28;20041;-65
2023/05/11 05:08:13;;;;;;;14.68;3.33;;;11.10;99.90;;;;;;5047940;28;20077;-65
2023/05/11 05:10:40;;;;;;;12.70;3.15;;;11.00;99.90;;;;;;5048789;28;20044;-65
2023/05/11 05:13:06;;;;;;;19.63;3.50;;;10.90;99.90;;;;;;5048772;28;20508;-65
2023/05/11 05:15:33;;;;;;;18.60;2.88;;;10.90;99.90;;;;;;5048817;28;20041;-65
2023/05/11 05:18:00;;;;;;;15.40;3.33;;;10.80;99.90;;;;;;5048619;28;20051;-66
2023/05/11 05:20:27;;;;;;;13.43;3.58;;;10.80;99.90;;;;;;5048853;28;20098;-67
2023/05/11 05:22:54;;;;;;;16.85;4.05;;;10.80;99.90;;;;;;5048184;28;20140;-64
2023/05/11 05:25:21;;;;;;;21.52;5.05;;;10.80;99.90;;;;;;5035997;28;20084;-65
2023/05/11 05:27:47;;;;;;;13.20;3.15;;;10.80;99.90;;;;;;5048418;28;20051;-66
2023/05/11 05:30:14;;;;;;;21.83;3.45;;;10.80;99.90;;;;;;5048491;28;20041;-65
2023/05/11 05:32:41;;;;;;;16.88;3.60;;;10.90;99.90;;;;;;5048539;28;20442;-65
2023/05/11 05:35:08;;;;;;;15.82;5.95;;;10.90;99.90;;;;;;5048715;28;20610;-65
2023/05/11 05:37:36;;;;;;;13.15;3.58;;;10.90;99.90;;;;;;5046927;28;20045;-66
2023/05/11 05:40:04;;;;;;;24.80;3.55;;;11.00;99.90;;;;;;5049002;28;20060;-65
2023/05/11 05:42:31;;;;;;;18.85;3.63;;;10.90;99.90;;;;;;5048395;28;20140;-65
2023/05/11 05:44:58;;;;;;;19.55;4.10;;;10.90;99.90;;;;;;5047622;28;20052;-66
2023/05/11 05:47:24;;;;;;;19.67;3.72;;;10.90;99.90;;;;;;5045407;28;20049;-65
2023/05/11 05:49:51;;;;;;;18.90;3.92;;;10.90;99.90;;;;;;5048533;28;20052;-65
2023/05/11 05:52:18;;;;;;;20.05;3.92;;;10.90;99.90;;;;;;5030324;28;20132;-65
2023/05/11 05:54:45;;;;;;;20.48;4.57;;;10.90;99.90;;;;;;5048130;28;20047;-65
2023/05/11 05:57:12;;;;;;;23.85;4.00;;;10.90;99.90;;;;;;5048239;28;20051;-65
2023/05/11 05:59:41;;;;;;;23.17;3.78;;;10.90;99.90;;;;;;5047642;28;20053;-64
2023/05/11 06:02:08;;;;;;;20.58;5.22;;;11.00;99.90;;;;;;5043722;28;20134;-65
2023/05/11 06:04:35;;;;;;;10.25;3.85;;;11.00;99.90;;;;;;5040624;28;20392;-65
2023/05/11 06:07:02;;;;;;;15.70;3.63;;;11.00;99.90;;;;;;5047437;28;20689;-71
2023/05/11 06:09:28;;;;;;;41.35;5.53;;;10.90;99.90;;;;;;5047502;28;20128;-65
2023/05/11 06:11:56;;;;;;;24.65;4.63;;;10.90;99.90;;;;;;5046134;28;20046;-66
2023/05/11 06:14:22;;;;;;;24.10;6.32;;;10.90;99.90;;;;;;5047297;28;20511;-66
2023/05/11 06:16:49;;;;;;;18.33;5.32;;;10.90;99.90;;;;;;5047339;28;20060;-65
2023/05/11 06:19:16;;;;;;;20.05;4.63;;;11.00;99.90;;;;;;5047230;28;20045;-67
2023/05/11 06:21:44;;;;;;;14.07;4.07;;;11.00;99.90;;;;;;5046360;28;20640;-69
2023/05/11 06:24:11;;;;;;;24.65;4.35;;;11.10;99.90;;;;;;5029672;28;20080;-64
2023/05/11 06:26:39;;;;;;;15.32;4.05;;;11.10;99.90;;;;;;5047655;28;20553;-65
2023/05/11 06:29:06;;;;;;;21.90;5.25;;;11.10;99.90;;;;;;5047235;28;20140;-65
2023/05/11 06:31:33;;;;;;;25.67;5.78;;;11.20;99.90;;;;;;5047278;28;20123;-66
2023/05/11 06:34:00;;;;;;;14.13;4.70;;;11.20;99.90;;;;;;5047160;28;20181;-65
2023/05/11 06:36:27;;;;;;;15.20;5.50;;;11.30;99.90;;;;;;5047147;28;20144;-65
2023/05/11 06:38:54;;;;;;;15.85;3.90;;;11.20;99.90;;;;;;5046985;28;20055;-65
2023/05/11 06:41:21;;;;;;;17.88;3.83;;;11.20;99.90;;;;;;5046968;28;20110;-67
2023/05/11 06:43:48;;;;;;;22.23;5.78;;;11.20;99.90;;;;;;5028804;28;20503;-65
2023/05/11 06:46:16;;;;;;;21.38;5.30;;;11.20;99.90;;;;;;5046104;28;20514;-63
2023/05/11 06:48:43;;;;;;;25.77;4.68;;;11.30;99.90;;;;;;5044840;28;20053;-65
2023/05/11 06:51:10;;;;;;;18.27;4.32;;;11.40;99.90;;;;;;5045700;28;20512;-63
2023/05/11 06:53:37;;;;;;;18.58;4.50;;;11.40;99.90;;;;;;5046056;28;20048;-64
2023/05/11 06:56:05;;;;;;;20.08;4.57;;;11.40;99.90;;;;;;5046382;28;20416;-62
2023/05/11 06:58:31;;;;;;;31.13;5.10;;;11.50;99.90;;;;;;5046387;28;20052;-63
2023/05/11 07:00:58;;;;;;;11.23;4.35;;;11.70;99.90;;;;;;5045804;28;20061;-64
2023/05/11 07:03:25;;;;;;;41.35;6.53;;;11.70;99.90;;;;;;5036620;28;20045;-64
2023/05/11 07:05:52;;;;;;;22.55;4.53;;;11.70;99.90;;;;;;5044577;28;20467;-65
2023/05/11 07:08:19;;;;;;;16.75;4.28;;;11.60;99.90;;;;;;5036478;28;20139;-62
2023/05/11 07:10:46;;;;;;;19.25;4.40;;;11.70;99.90;;;;;;5043972;28;20045;-65
2023/05/11 07:13:13;;;;;;;20.05;4.47;;;11.70;99.90;;;;;;5047935;28;20508;-64
2023/05/11 07:15:40;;;;;;;18.65;4.60;;;11.90;99.90;;;;;;5048819;28;20048;-64
2023/05/11 07:18:07;;;;;;;20.92;5.05;;;11.90;99.90;;;;;;5049209;28;20053;-65
2023/05/11 07:20:35;;;;;;;23.30;4.60;;;11.90;99.90;;;;;;5049256;28;20056;-65
2023/05/11 07:23:04;;;;;;;21.75;5.70;;;12.00;99.90;;;;;;5047261;28;20106;-63
2023/05/11 07:25:32;;;;;;;15.90;5.00;;;12.10;99.90;;;;;;5039339;28;20045;-64
2023/05/11 07:27:59;;;;;;;18.02;4.85;;;12.20;99.90;;;;;;5043477;28;20080;-64
2023/05/11 07:30:26;;;;;;;16.20;4.78;;;12.20;99.90;;;;;;5024232;28;20045;-64
2023/05/11 07:32:53;;;;;;;19.17;4.35;;;12.20;99.90;;;;;;5046583;28;20052;-64
2023/05/11 07:35:22;;;;;;;19.70;4.15;;;12.40;99.90;;;;;;5049656;28;20130;-65
2023/05/11 07:37:49;;;;;;;34.30;5.82;;;12.40;99.90;;;;;;5031293;28;20510;-64
2023/05/11 07:40:16;;;;;;;21.63;4.40;;;12.50;99.90;;;;;;5037953;28;20147;-65
2023/05/11 07:42:43;;;;;;;16.38;4.07;;;12.60;99.90;;;;;;5031923;28;20045;-65
2023/05/11 07:45:10;;;;;;;20.30;9.35;;;12.70;99.90;;;;;;5049198;28;20041;-65
2023/05/11 07:47:37;;;;;;;15.15;5.00;;;12.80;99.90;;;;;;5049635;28;20068;-65
2023/05/11 07:50:05;;;;;;;14.90;4.10;;;12.90;99.90;;;;;;5049038;28;20609;-63
2023/05/11 07:52:31;;;;;;;18.20;4.53;;;13.00;99.90;;;;;;5049260;28;20128;-64
2023/05/11 07:54:58;;;;;;;23.20;4.47;;;13.10;99.90;;;;;;5050103;28;20052;-64
2023/05/11 07:57:26;;;;;;;15.85;4.63;;;13.20;99.90;;;;;;5049750;28;20053;-64
2023/05/11 07:59:52;;;;;;;26.40;5.88;;;13.30;99.90;;;;;;5050265;28;20087;-65
2023/05/11 08:02:19;;;;;;;19.00;4.38;;;13.40;99.90;;;;;;5050210;28;20068;-64
2023/05/11 08:04:46;;;;;;;20.25;4.88;;;13.50;99.90;;;;;;5032044;28;20045;-65
2023/05/11 08:07:13;;;;;;;20.63;5.53;;;13.60;99.90;;;;;;5049370;28;20075;-64
2023/05/11 08:09:39;;;;;;;15.10;4.32;;;13.60;99.90;;;;;;5049511;28;20522;-64
2023/05/11 08:12:06;;;;;;;24.38;4.15;;;13.70;99.90;;;;;;5046098;28;20051;-64
2023/05/11 08:14:33;;;;;;;15.13;3.75;;;13.70;99.90;;;;;;5049805;28;20520;-65
2023/05/11 08:17:00;;;;;;;18.70;4.88;;;13.80;99.90;;;;;;5050728;28;20051;-65
2023/05/11 08:19:27;;;;;;;26.83;4.90;;;13.90;99.90;;;;;;5050242;28;20080;-65
2023/05/11 08:21:54;;;;;;;31.65;5.43;;;14.00;99.90;;;;;;5050304;28;20555;-64
2023/05/11 08:24:20;;;;;;;16.83;3.92;;;14.10;99.90;;;;;;5030750;28;20419;-65
2023/05/11 08:26:47;;;;;;;13.57;4.65;;;14.20;99.90;;;;;;5036582;28;20591;-64
2023/05/11 08:29:14;;;;;;;11.48;4.20;;;14.20;99.90;;;;;;5048746;28;20049;-65
2023/05/11 08:31:41;;;;;;;19.15;3.95;;;14.30;99.90;;;;;;5048209;28;20049;-64
2023/05/11 08:34:08;;;;;;;11.93;3.85;;;14.50;99.90;;;;;;5041038;28;20380;-64
2023/05/11 08:36:45;;;;;;;13.25;3.22;;;14.40;99.90;;;;;;5048405;28;20084;-64
2023/05/11 08:39:12;;;;;;;18.35;3.95;;;14.40;99.90;;;;;;5048586;28;20269;-66
2023/05/11 08:41:39;;;;;;;15.15;3.95;;;14.60;99.90;;;;;;5048435;28;20080;-65
2023/05/11 08:44:06;;;;;;;21.70;4.28;;;14.60;99.90;;;;;;5048169;28;20059;-64
2023/05/11 08:46:34;;;;;;;10.55;3.42;;;14.70;99.90;;;;;;5030921;28;20357;-64
2023/05/11 08:49:01;;;;;;;11.55;2.88;;;14.70;99.90;;;;;;5048210;28;20072;-65
2023/05/11 08:51:28;;;;;;;12.65;3.53;;;14.80;99.90;;;;;;5030727;28;20496;-65
2023/05/11 08:53:56;;;;;;;13.82;4.22;;;14.80;99.90;;;;;;5046989;28;20131;-64
2023/05/11 08:56:23;;;;;;;19.75;5.60;;;14.80;99.90;;;;;;5030804;28;20137;-64
2023/05/11 08:58:50;;;;;;;16.70;4.32;;;14.90;99.90;;;;;;5046952;28;20053;-65
2023/05/11 09:01:18;;;;;;;14.63;3.63;;;14.90;99.90;;;;;;5047213;28;20068;-64
2023/05/11 09:03:45;;;;;;;13.05;4.07;;;15.00;99.90;;;;;;5047846;28;20049;-64
2023/05/11 09:06:12;;;;;;;15.38;3.00;;;15.00;99.90;;;;;;5047282;28;20458;-64
2023/05/11 09:08:39;;;;;;;14.68;3.58;;;15.00;99.90;;;;;;5047980;28;20052;-63
2023/05/11 09:11:05;;;;;;;14.52;3.38;;;14.90;99.90;;;;;;5046943;28;20052;-65
2023/05/11 09:13:32;;;;;;;10.35;2.60;;;14.80;99.90;;;;;;5030595;28;20040;-63
2023/05/11 09:15:59;;;;;;;15.65;3.40;;;14.80;99.90;;;;;;5047040;28;20047;-64
2023/05/11 09:18:26;;;;;;;13.50;3.20;;;14.80;99.90;;;;;;5047689;28;20045;-65
2023/05/11 09:20:53;;;;;;;16.33;3.70;;;14.80;99.90;;;;;;5047994;28;20099;-64
2023/05/11 09:23:25;;;;;;;7.43;2.83;;;14.80;99.90;;;;;;5046650;28;20055;-64
2023/05/11 09:25:52;;;;;;;33.85;3.75;;;14.80;99.90;;;;;;5046891;28;20071;-64
2023/05/11 09:28:25;;;;;;;17.02;4.07;;;14.80;99.90;;;;;;5046473;28;20049;-63
2023/05/11 09:30:52;;;;;;;;;;;14.90;99.90;;;;;;5047911;28;20044;-64
2023/05/11 09:33:23;;;;;;;6.20;2.38;;;14.90;99.90;;;;;;5042448;28;20287;-64
2023/05/11 09:35:50;;;;;;;10.52;4.07;;;14.90;99.90;;;;;;5047498;28;20140;-64
2023/05/11 09:38:18;;;;;;;13.52;3.25;;;15.00;99.90;;;;;;5048002;28;20103;-64
2023/05/11 09:40:53;;;;;;;9.02;2.40;;;15.00;99.90;;;;;;5046314;28;20510;-64
2023/05/11 09:43:27;;;;;;;7.60;2.45;;;15.00;99.90;;;;;;5046783;28;20408;-63
2023/05/11 09:45:55;;;;;;;13.15;2.00;;;14.90;99.90;;;;;;5047342;28;20052;-64
2023/05/11 09:48:30;;;;;;;9.82;2.78;;;15.00;99.90;;;;;;5046277;28;20607;-65
2023/05/11 09:51:04;;;;;;;11.50;2.65;;;15.10;99.90;;;;;;5047097;28;20560;-65
2023/05/11 09:53:44;;;;;;;11.85;2.03;;;15.20;99.90;;;;;;5029842;28;20049;-63
2023/05/11 09:56:12;;;;;;;6.47;1.92;;;15.60;99.90;;;;;;5047284;28;20041;-64
2023/05/11 09:58:53;;;;;;;3.90;1.40;;;15.90;99.90;;;;;;5047469;28;20127;-64
2023/05/11 10:01:31;;;;;;;4.38;2.30;;;16.30;99.90;;;;;;5044793;28;20080;-65
2023/05/11 10:04:00;;;;;;;5.05;1.30;;;16.90;99.90;;;;;;5010719;28;20049;-65
2023/05/11 10:06:51;;;;;;;7.60;1.15;;;17.30;99.90;;;;;;5043731;28;20403;-65
2023/05/11 10:09:23;;;;;;;8.00;1.77;;;17.80;99.90;;;;;;5047333;28;20102;-64
2023/05/11 10:11:50;;;;;;;11.48;1.63;;;18.00;99.90;;;;;;5046447;28;20053;-65
2023/05/11 10:14:16;;;;;;;6.68;1.55;;;18.20;99.90;;;;;;5047739;28;20118;-65
2023/05/11 10:16:43;;;;;;;3.17;1.10;;;18.30;99.90;;;;;;5045712;28;20077;-65
2023/05/11 10:19:11;;;;;;;5.95;1.10;;;18.20;99.90;;;;;;5021348;28;20045;-64
2023/05/11 10:21:38;;;;;;;7.10;1.30;;;18.40;99.90;;;;;;5025810;28;20048;-65
2023/05/11 10:24:05;;;;;;;5.30;1.27;;;18.50;99.90;;;;;;5046247;28;20402;-65
2023/05/11 10:26:32;;;;;;;5.60;1.50;;;18.90;99.90;;;;;;5029548;28;20110;-65
2023/05/11 10:29:00;;;;;;;3.50;1.05;;;18.80;99.90;;;;;;5047197;28;20052;-64
2023/05/11 10:31:27;;;;;;;7.20;1.35;;;18.60;99.90;;;;;;5040433;28;20084;-65
2023/05/11 10:33:56;;;;;;;6.15;2.42;;;18.60;99.90;;;;;;5019299;28;20133;-64
2023/05/11 10:36:23;;;;;;;7.20;1.92;;;18.70;99.90;;;;;;5046707;28;20083;-66
2023/05/11 10:38:49;;;;;;;8.25;1.95;;;19.20;99.90;;;;;;5046955;28;20059;-66
2023/05/11 10:41:40;;;;;;;6.13;1.30;;;19.70;99.90;;;;;;5047617;28;20137;-66
2023/05/11 10:44:19;;;;;;;9.07;2.58;;;19.70;99.90;;;;;;5033305;28;20076;-66
2023/05/11 10:47:11;;;;;;;10.70;1.73;;;19.60;99.90;;;;;;5049634;28;20048;-65
2023/05/11 10:49:57;;;;;;;13.10;2.33;;;19.60;99.90;;;;;;5049948;28;20507;-66
2023/05/11 10:52:46;;;;;;;5.95;2.08;;;19.50;99.90;;;;;;5052674;28;20064;-65
2023/05/11 10:55:19;;;;;;;9.75;2.22;;;19.40;99.90;;;;;;5035032;28;20068;-65
2023/05/11 10:57:50;;;;;;;5.85;1.70;;;19.20;99.90;;;;;;5034041;28;20045;-64
2023/05/11 11:00:55;;;;;;;6.47;2.05;;;19.20;99.90;;;;;;5049599;28;20072;-65
2023/05/11 11:03:22;;;;;;;6.30;1.73;;;19.20;99.90;;;;;;5049567;28;20132;-64
2023/05/11 11:05:49;;;;;;;10.15;1.35;;;19.00;99.90;;;;;;5049349;28;20639;-64
2023/05/11 11:08:16;;;;;;;7.55;1.58;;;18.80;99.90;;;;;;5048934;28;20053;-65
2023/05/11 11:10:45;;;;;;;8.25;1.35;;;18.70;99.90;;;;;;5050563;28;20045;-64
2023/05/11 11:13:12;;;;;;;12.52;1.58;;;18.60;99.90;;;;;;5050138;28;20045;-66
2023/05/11 11:15:55;;;;;;;12.60;2.25;;;18.60;99.90;;;;;;5047193;28;20099;-65
2023/05/11 11:18:25;;;;;;;4.75;1.52;;;18.50;99.90;;;;;;5049871;28;20049;-64
2023/05/11 11:20:54;;;;;;;6.57;1.60;;;18.40;99.90;;;;;;5047525;28;20052;-65
2023/05/11 11:23:39;;;;;;;5.03;1.50;;;18.40;99.90;;;;;;5050178;28;20091;-65
2023/05/11 11:26:09;;;;;;;11.32;2.25;;;18.40;99.90;;;;;;5047807;28;20060;-65
2023/05/11 11:28:56;;;;;;;11.45;2.13;;;18.40;99.90;;;;;;5050028;28;20135;-63
2023/05/11 11:31:32;;;;;;;3.60;1.58;;;18.10;99.90;;;;;;5041039;28;20397;-64
2023/05/11 11:34:27;;;;;;;12.55;2.40;;;18.20;99.90;;;;;;5023883;28;20822;-65
2023/05/11 11:36:54;;;;;;;6.80;1.90;;;18.20;99.90;;;;;;5040002;28;20458;-64
2023/05/11 11:39:21;;;;;;;6.05;2.17;;;18.20;99.90;;;;;;5049331;28;20132;-65
2023/05/11 11:42:05;;;;;;;10.93;2.22;;;18.30;99.90;;;;;;5032263;28;20467;-63
2023/05/11 11:44:33;;;;;;;4.82;1.58;;;18.40;99.90;;;;;;5048350;28;20049;-62
2023/05/11 11:47:11;;;;;;;6.95;1.48;;;18.60;99.90;;;;;;5049974;28;20116;-65
2023/05/11 11:49:39;;;;;;;5.95;1.40;;;18.70;99.90;;;;;;5047374;28;20041;-65
2023/05/11 11:52:13;;;;;;;4.88;1.88;;;18.60;99.90;;;;;;5049731;28;20084;-64
2023/05/11 11:54:42;;;;;;;8.65;1.90;;;18.30;99.90;;;;;;5049317;28;20148;-66
2023/05/11 11:57:34;;;;;;;7.22;2.40;;;18.30;99.90;;;;;;5031950;28;20041;-65
2023/05/11 12:00:11;;;;;;;7.10;1.60;;;18.30;99.90;;;;;;5049350;28;20131;-64
2023/05/11 12:02:42;;;;;;;8.02;1.70;;;18.20;99.90;;;;;;5038539;28;20084;-65
2023/05/11 12:05:16;;;;;;;3.90;1.50;;;18.20;99.90;;;;;;5031753;28;20041;-66
2023/05/11 12:07:46;;;;;;;6.38;1.30;;;18.30;99.90;;;;;;5048367;28;20040;-65
2023/05/11 12:10:14;;;;;;;6.22;1.45;;;18.40;99.90;;;;;;5049136;28;20528;-65
2023/05/11 12:12:44;;;;;;;7.32;2.58;;;18.50;99.90;;;;;;5049883;28;20075;-65
2023/05/11 12:15:26;;;;;;;9.65;1.77;;;18.60;99.90;;;;;;5050141;28;20048;-64
2023/05/11 12:17:53;;;;;;;5.80;1.38;;;18.70;99.90;;;;;;5047609;28;20037;-65
2023/05/11 12:20:21;;;;;;;6.22;1.13;;;18.60;99.90;;;;;;5031462;28;20055;-65
2023/05/11 12:22:48;;;;;;;3.47;1.48;;;18.60;99.90;;;;;;5047806;28;20541;-64
2023/05/11 12:25:18;;;;;;;4.72;1.50;;;18.60;99.90;;;;;;5049402;28;20094;-65
2023/05/11 12:27:48;;;;;;;6.63;2.30;;;18.50;99.90;;;;;;5049281;28;20511;-65
2023/05/11 12:30:23;;;;;;;7.95;2.15;;;18.60;99.90;;;;;;5049025;28;20231;-63
2023/05/11 12:32:50;;;;;;;12.27;1.98;;;18.60;99.90;;;;;;5048946;28;20077;-65
2023/05/11 12:35:24;;;;;;;2.78;1.20;;;18.60;99.90;;;;;;5048862;28;20149;-65
2023/05/11 12:37:51;;;;;;;18.52;3.25;;;18.50;99.90;;;;;;5048871;28;20053;-64
2023/05/11 12:40:18;;;;;;;6.50;1.25;;;18.50;99.90;;;;;;5048661;28;20620;-64
2023/05/11 12:42:55;;;;;;;6.95;2.38;;;18.50;99.90;;;;;;5047611;28;20088;-66
2023/05/11 12:45:24;;;;;;;5.78;1.30;;;18.40;99.90;;;;;;5035942;28;20048;-66
2023/05/11 12:47:55;;;;;;;16.23;3.13;;;18.50;99.90;;;;;;5047210;28;20072;-64
2023/05/11 12:50:22;;;;;;;23.85;2.58;;;18.60;99.90;;;;;;5029510;28;20045;-65